Time;durP1;ratioP1;P1;durP2;ratioP2;P2;SDS_P1;SDS_P2;PMS_P1;PMS_P2;Temp;Humidity;BMP_temperature;BMP_pressure;BME280_temperature;BME280_humidity;BME280_pressure;Samples;Min_cycle;Max_cycle;Signal;HPM_P1;HPM_P2
2024/03/22 00:09:47;;;;;;;16.20;15.10;;;13.80;24.30;;;;;;4907726;29;20410;-80
2024/03/22 00:13:08;;;;;;;17.77;16.47;;;13.90;24.10;;;;;;4852309;29;20523;-81
2024/03/22 00:15:42;;;;;;;19.73;18.07;;;14.00;24.00;;;;;;4833473;29;20444;-82
2024/03/22 00:18:50;;;;;;;18.60;17.50;;;14.00;23.90;;;;;;4853148;29;20423;-80
2024/03/22 00:24:52;;;;;;;15.77;14.77;;;13.40;25.40;;;;;;4931874;29;21316;-81
2024/03/22 00:27:56;;;;;;;17.10;15.80;;;13.20;25.40;;;;;;4935102;29;20459;-81
2024/03/22 00:30:51;;;;;;;16.43;15.33;;;13.00;25.20;;;;;;4923996;29;20455;-82
2024/03/22 00:33:56;;;;;;;16.80;15.60;;;12.80;25.90;;;;;;4932986;29;20447;-81
2024/03/22 00:37:13;;;;;;;16.07;15.07;;;12.70;26.20;;;;;;4901197;29;20448;-81
2024/03/22 00:39:56;;;;;;;16.83;15.53;;;12.70;25.70;;;;;;4341825;29;17645696;-81
2024/03/22 00:42:35;;;;;;;16.00;14.90;;;12.60;25.80;;;;;;4939647;29;20202;-81
2024/03/22 00:45:29;;;;;;;16.50;15.20;;;12.60;26.10;;;;;;4946009;29;20454;-81
2024/03/22 00:48:49;;;;;;;16.50;15.40;;;12.60;26.10;;;;;;4950152;29;20511;-80
2024/03/22 00:51:25;;;;;;;17.07;15.77;;;12.70;26.10;;;;;;4956687;28;20494;-81
2024/03/22 00:54:06;;;;;;;16.07;15.07;;;12.90;25.60;;;;;;4964781;28;20423;-81
2024/03/22 01:00:20;;;;;;;16.50;15.40;;;13.20;25.30;;;;;;4962218;29;20452;-81
2024/03/22 01:03:12;;;;;;;;;;;;;;;;;;;;;
2024/03/22 01:06:27;;;;;;;;;;;;;;;;;;;;;
2024/03/22 01:09:20;;;;;;;16.20;15.00;;;13.50;24.80;;;;;;4938732;29;20430;-81
2024/03/22 01:15:31;;;;;;;17.77;16.57;;;13.40;24.00;;;;;;4941631;29;20499;-81
2024/03/22 01:18:07;;;;;;;;;;;;;;;;;;;;;
2024/03/22 01:20:43;;;;;;;16.37;15.17;;;13.50;24.00;;;;;;4948869;29;20510;-81
2024/03/22 01:42:37;;;;;;;;;;;;;;;;;;;;;
2024/03/22 01:56:38;;;;;;;17.57;16.03;;;13.50;23.90;;;;;;4823713;29;20493;-82
2024/03/22 02:00:44;;;;;;;17.47;16.37;;;13.40;24.10;;;;;;4785515;29;20532;-81
2024/03/22 02:03:42;;;;;;;18.13;16.83;;;13.40;24.10;;;;;;4796164;29;20417;-81
2024/03/22 02:06:44;;;;;;;19.17;17.93;;;13.20;24.90;;;;;;4841235;29;20956;-81
2024/03/22 02:09:24;;;;;;;18.20;16.90;;;13.10;25.30;;;;;;4896049;29;20420;-81
2024/03/22 02:12:22;;;;;;;17.30;15.93;;;13.00;24.90;;;;;;4902619;29;20504;-81
2024/03/22 02:15:23;;;;;;;17.67;16.50;;;12.70;25.00;;;;;;4856998;29;20457;-80
2024/03/22 02:18:31;;;;;;;19.37;18.17;;;12.50;25.60;;;;;;4901929;29;20907;-80
2024/03/22 02:21:17;;;;;;;19.30;18.10;;;12.50;25.70;;;;;;4916979;29;20432;-81
2024/03/22 02:24:09;;;;;;;19.50;18.10;;;12.50;25.80;;;;;;4920323;29;20867;-82
2024/03/22 02:29:44;;;;;;;19.23;17.67;;;12.80;25.10;;;;;;4936704;29;20545;-83
2024/03/22 02:32:54;;;;;;;20.77;19.27;;;12.90;25.20;;;;;;4897186;29;20436;-82
2024/03/22 02:35:59;;;;;;;19.03;17.53;;;13.00;25.20;;;;;;4897680;29;20499;-81
2024/03/22 02:39:01;;;;;;;18.80;17.50;;;13.00;25.00;;;;;;4897875;29;20432;-82
2024/03/22 02:41:46;;;;;;;18.53;17.00;;;13.00;24.60;;;;;;4899219;29;20448;-82
2024/03/22 02:44:42;;;;;;;17.03;15.93;;;12.90;24.10;;;;;;4924959;29;20428;-81
2024/03/22 02:47:16;;;;;;;17.83;16.73;;;12.60;25.00;;;;;;4908956;29;20944;-82
2024/03/22 02:50:04;;;;;;;;;;;;;;;;;;;;;
2024/03/22 02:52:45;;;;;;;18.33;17.03;;;12.20;26.10;;;;;;4937840;29;20511;-80
2024/03/22 02:55:25;;;;;;;18.37;17.27;;;12.00;26.00;;;;;;4892672;29;20456;-81
2024/03/22 02:58:00;;;;;;;18.53;16.97;;;11.80;26.90;;;;;;4919661;29;20435;-81
2024/03/22 03:03:43;;;;;;;19.03;17.60;;;11.70;27.00;;;;;;4939735;29;20448;-82
2024/03/22 03:06:16;;;;;;;18.90;17.60;;;11.90;27.50;;;;;;4920994;29;20487;-81
2024/03/22 03:09:07;;;;;;;18.87;17.57;;;12.10;27.00;;;;;;4918921;29;20442;-80
2024/03/22 03:11:46;;;;;;;20.30;19.00;;;12.20;26.50;;;;;;4911793;29;20416;-81
2024/03/22 03:14:28;;;;;;;18.90;17.70;;;12.20;26.20;;;;;;4911938;29;20427;-81
2024/03/22 03:17:05;;;;;;;20.90;18.80;;;12.20;26.90;;;;;;4920247;29;20483;-81
2024/03/22 03:20:03;;;;;;;20.73;19.17;;;12.30;26.60;;;;;;4920952;29;20796;-81
2024/03/22 03:22:39;;;;;;;19.50;18.13;;;12.40;26.40;;;;;;4917465;29;20431;-81
2024/03/22 03:25:14;;;;;;;21.10;19.60;;;12.50;26.30;;;;;;4899569;29;20443;-81
2024/03/22 03:28:17;;;;;;;18.50;17.10;;;12.50;25.80;;;;;;4921064;29;20438;-81
2024/03/22 03:30:53;;;;;;;18.37;17.17;;;12.60;25.50;;;;;;4936467;29;20467;-82
2024/03/22 03:33:27;;;;;;;18.13;17.00;;;12.70;25.00;;;;;;4920529;29;20439;-82
2024/03/22 03:36:29;;;;;;;17.87;16.70;;;12.80;25.10;;;;;;4920187;29;20474;-81
2024/03/22 03:42:00;;;;;;;19.47;18.00;;;12.80;25.10;;;;;;4931663;29;21018;-82
2024/03/22 03:44:57;;;;;;;;;;;;;;;;;;;;;
2024/03/22 03:51:03;;;;;;;20.60;19.30;;;12.80;25.10;;;;;;4914437;29;20475;-82
2024/03/22 03:53:30;;;;;;;19.80;18.50;;;12.80;25.20;;;;;;4917409;29;20452;-82
2024/03/22 03:56:42;;;;;;;19.80;18.50;;;12.90;25.20;;;;;;4909941;29;20487;-82
2024/03/22 03:59:43;;;;;;;19.53;18.30;;;12.80;25.10;;;;;;4894346;29;20464;-83
2024/03/22 04:02:20;;;;;;;19.97;18.77;;;12.80;25.10;;;;;;4905936;29;20431;-81
2024/03/22 04:05:12;;;;;;;19.80;18.40;;;12.90;25.00;;;;;;4920635;29;20452;-81
2024/03/22 04:11:26;;;;;;;19.57;18.17;;;12.80;25.10;;;;;;4919720;29;20491;-81
2024/03/22 04:14:09;;;;;;;19.20;17.63;;;12.80;24.90;;;;;;4902470;29;20425;-81
2024/03/22 04:16:49;;;;;;;19.30;18.10;;;12.80;24.80;;;;;;4902637;29;20432;-82
2024/03/22 04:19:29;;;;;;;18.70;17.50;;;12.90;24.70;;;;;;4914016;29;20966;-82
2024/03/22 04:22:24;;;;;;;18.63;17.43;;;12.90;24.50;;;;;;4912349;29;21126;-82
2024/03/22 04:25:18;;;;;;;18.87;17.43;;;12.80;24.50;;;;;;4922599;29;20478;-82
2024/03/22 04:28:01;;;;;;;16.03;15.00;;;12.80;24.50;;;;;;4932179;29;20914;-82
2024/03/22 04:30:53;;;;;;;14.83;14.03;;;12.60;24.80;;;;;;4909510;29;20467;-82
2024/03/22 04:33:30;;;;;;;;;;;;;;;;;;;;;
2024/03/22 04:36:46;;;;;;;16.20;15.30;;;12.40;24.90;;;;;;4941138;29;20450;-82
2024/03/22 04:39:27;;;;;;;15.97;15.07;;;12.30;24.90;;;;;;4941526;29;20412;-81
2024/03/22 04:42:15;;;;;;;15.27;14.47;;;12.40;24.80;;;;;;4929869;29;20435;-80
2024/03/22 04:44:59;;;;;;;15.73;14.73;;;12.40;24.80;;;;;;4930736;29;20444;-80
2024/03/22 04:47:48;;;;;;;15.03;14.17;;;12.50;24.90;;;;;;4916234;29;20552;-83
2024/03/22 04:50:36;;;;;;;15.63;14.63;;;12.40;24.40;;;;;;4914786;29;20547;-81
2024/03/22 04:56:32;;;;;;;16.10;15.20;;;12.30;24.80;;;;;;4911920;29;20431;-82
2024/03/22 05:01:44;;;;;;;18.00;17.00;;;12.30;24.80;;;;;;4987902;23;20731;-81
2024/03/22 05:04:10;;;;;;;17.97;16.77;;;12.30;25.30;;;;;;4917702;29;20521;-81
2024/03/22 05:06:35;;;;;;;17.57;16.50;;;12.40;25.60;;;;;;4952181;29;20449;-80
2024/03/22 05:09:01;;;;;;;17.70;16.70;;;12.50;25.20;;;;;;4925497;29;20188;-81
2024/03/22 05:11:31;;;;;;;18.20;16.97;;;12.60;25.00;;;;;;4940478;29;20236;-80
2024/03/22 05:13:57;;;;;;;18.80;17.30;;;12.80;25.20;;;;;;4923304;29;20255;-81
2024/03/22 05:16:23;;;;;;;16.77;15.80;;;12.90;24.40;;;;;;4931176;29;20431;-80
2024/03/22 05:18:49;;;;;;;17.30;16.17;;;13.00;24.50;;;;;;4931725;29;20432;-80
2024/03/22 05:21:15;;;;;;;16.03;15.20;;;13.00;24.20;;;;;;4937997;29;20830;-80
2024/03/22 05:23:40;;;;;;;17.70;16.73;;;13.10;24.30;;;;;;4929568;29;20508;-80
2024/03/22 05:26:06;;;;;;;18.07;16.90;;;13.10;24.10;;;;;;4929405;29;20679;-80
2024/03/22 05:28:32;;;;;;;16.60;15.53;;;13.10;23.90;;;;;;4929209;29;20188;-80
2024/03/22 05:30:57;;;;;;;15.43;14.43;;;13.10;24.00;;;;;;4938745;29;20889;-79
2024/03/22 05:33:23;;;;;;;16.73;15.73;;;13.10;23.70;;;;;;4935755;29;20214;-79
2024/03/22 05:35:48;;;;;;;15.93;15.00;;;13.10;23.50;;;;;;4930882;29;20243;-81
2024/03/22 05:38:14;;;;;;;16.60;15.40;;;13.10;23.50;;;;;;4939683;29;20176;-80
2024/03/22 05:40:39;;;;;;;15.93;14.90;;;13.20;23.50;;;;;;4930175;29;20803;-80
2024/03/22 05:43:05;;;;;;;16.40;15.40;;;13.20;23.60;;;;;;4930649;29;20671;-80
2024/03/22 05:45:30;;;;;;;16.53;15.53;;;13.20;23.40;;;;;;4954244;29;20256;-80
2024/03/22 05:47:56;;;;;;;16.50;15.60;;;13.20;23.20;;;;;;4940396;29;20589;-80
2024/03/22 05:50:21;;;;;;;15.77;14.87;;;13.20;23.40;;;;;;4938432;29;20307;-81
2024/03/22 05:52:47;;;;;;;16.37;15.10;;;13.20;23.40;;;;;;4938593;29;20247;-80
2024/03/22 05:55:13;;;;;;;15.20;14.30;;;13.20;23.50;;;;;;4930038;29;20180;-81
2024/03/22 05:57:39;;;;;;;16.87;15.77;;;13.20;23.30;;;;;;4939927;29;20184;-80
2024/03/22 06:00:06;;;;;;;15.77;14.87;;;13.30;23.50;;;;;;4929925;29;20463;-79
2024/03/22 06:02:32;;;;;;;16.33;15.43;;;13.30;23.40;;;;;;4939293;29;20180;-80
2024/03/22 06:04:58;;;;;;;15.50;14.60;;;13.30;23.50;;;;;;4937780;29;20443;-80
2024/03/22 06:07:25;;;;;;;15.37;14.23;;;13.20;23.30;;;;;;4944704;29;20467;-81
2024/03/22 06:09:52;;;;;;;17.77;16.43;;;13.20;23.40;;;;;;4931853;29;20471;-80
2024/03/22 06:12:18;;;;;;;17.33;16.10;;;13.20;23.00;;;;;;4938914;29;20450;-80
2024/03/22 06:14:44;;;;;;;18.57;17.33;;;12.90;23.70;;;;;;4932692;29;20435;-81
2024/03/22 06:17:10;;;;;;;18.07;16.70;;;12.70;24.40;;;;;;4947805;29;20188;-81
2024/03/22 06:19:36;;;;;;;17.50;16.30;;;12.70;24.50;;;;;;4927367;29;20458;-80
2024/03/22 06:22:02;;;;;;;17.50;16.13;;;12.80;25.10;;;;;;4947203;29;20444;-81
2024/03/22 06:24:28;;;;;;;17.17;16.10;;;12.90;24.40;;;;;;4933634;29;20444;-79
2024/03/22 06:26:53;;;;;;;16.13;15.23;;;12.90;24.10;;;;;;4929583;29;20439;-80
2024/03/22 06:29:19;;;;;;;17.80;16.77;;;13.00;24.00;;;;;;4939205;29;20640;-80
2024/03/22 06:31:45;;;;;;;17.40;16.10;;;13.10;23.80;;;;;;4947876;29;20188;-80
2024/03/22 06:34:10;;;;;;;18.80;17.50;;;13.10;23.60;;;;;;4941926;29;20316;-81
2024/03/22 06:36:36;;;;;;;18.10;16.80;;;12.90;24.60;;;;;;4948884;29;20263;-80
2024/03/22 06:39:06;;;;;;;18.57;17.33;;;12.90;24.40;;;;;;4938405;29;20192;-80
2024/03/22 06:41:31;;;;;;;17.73;16.60;;;12.90;24.30;;;;;;4922834;29;20211;-81
2024/03/22 06:43:57;;;;;;;19.67;18.17;;;13.00;24.20;;;;;;4920877;29;20488;-80
2024/03/22 06:46:22;;;;;;;19.10;17.60;;;13.10;24.00;;;;;;4954024;28;20219;-79
2024/03/22 06:48:48;;;;;;;18.10;16.60;;;13.00;23.70;;;;;;4932899;29;20202;-80
2024/03/22 06:51:14;;;;;;;17.70;16.50;;;12.90;24.50;;;;;;4923720;29;20212;-80
2024/03/22 06:53:39;;;;;;;18.83;17.53;;;12.80;24.90;;;;;;4930770;29;20184;-81
2024/03/22 06:56:11;;;;;;;18.40;17.20;;;12.80;24.60;;;;;;4954753;29;20203;-81
2024/03/22 06:58:38;;;;;;;17.90;16.50;;;12.90;24.50;;;;;;4935777;29;20186;-80
2024/03/22 07:01:03;;;;;;;16.60;15.13;;;13.00;24.40;;;;;;4937663;29;20467;-81
2024/03/22 07:03:29;;;;;;;16.97;15.70;;;13.10;23.90;;;;;;4953431;29;20435;-81
2024/03/22 07:05:55;;;;;;;16.97;15.67;;;12.90;24.20;;;;;;4949611;29;20196;-80
2024/03/22 07:08:21;;;;;;;18.27;16.87;;;12.90;24.60;;;;;;4942520;29;20447;-81
2024/03/22 07:10:46;;;;;;;18.60;17.13;;;12.90;24.20;;;;;;4920359;29;20653;-81
2024/03/22 07:13:12;;;;;;;17.60;16.40;;;12.90;25.00;;;;;;4936877;29;20185;-81
2024/03/22 07:15:37;;;;;;;17.63;16.43;;;13.10;24.30;;;;;;4938094;29;20180;-81
2024/03/22 07:18:03;;;;;;;18.90;17.50;;;13.20;24.00;;;;;;4931047;29;20280;-81
2024/03/22 07:20:30;;;;;;;17.43;16.13;;;13.20;23.70;;;;;;4939490;29;20567;-81
2024/03/22 07:22:56;;;;;;;18.53;17.20;;;13.30;24.20;;;;;;4936874;29;20944;-81
2024/03/22 07:25:22;;;;;;;17.70;16.60;;;13.40;24.40;;;;;;4943169;29;20434;-81
2024/03/22 07:27:49;;;;;;;18.10;16.80;;;13.50;24.30;;;;;;4955762;29;20439;-81
2024/03/22 07:30:15;;;;;;;17.93;16.67;;;13.50;23.70;;;;;;4945460;29;20213;-81
2024/03/22 07:32:40;;;;;;;18.50;17.30;;;13.50;23.80;;;;;;4951743;29;20809;-80
2024/03/22 07:35:07;;;;;;;19.93;18.43;;;13.60;23.70;;;;;;4958381;29;20463;-81
2024/03/22 07:37:37;;;;;;;19.87;18.20;;;13.60;23.50;;;;;;4961440;29;20179;-86
2024/03/22 07:40:03;;;;;;;16.97;15.67;;;13.70;23.30;;;;;;4930170;29;20492;-79
2024/03/22 07:42:29;;;;;;;19.90;18.43;;;13.70;23.60;;;;;;4950744;29;20431;-78
2024/03/22 07:44:54;;;;;;;18.83;17.33;;;13.80;24.00;;;;;;4953993;29;20438;-77
2024/03/22 07:47:20;;;;;;;17.83;16.53;;;13.80;24.00;;;;;;4944679;29;20450;-81
2024/03/22 07:49:45;;;;;;;16.60;15.30;;;13.90;24.10;;;;;;4922495;29;20212;-81
2024/03/22 07:52:11;;;;;;;17.73;16.47;;;13.90;23.90;;;;;;4943848;29;20192;-81
2024/03/22 07:54:36;;;;;;;18.30;16.90;;;14.00;23.40;;;;;;4931135;29;20183;-79
2024/03/22 07:57:03;;;;;;;18.20;16.93;;;14.00;23.60;;;;;;4943572;29;20204;-81
2024/03/22 07:59:29;;;;;;;18.07;16.83;;;14.10;23.30;;;;;;4933676;29;20195;-80
2024/03/22 08:01:55;;;;;;;18.07;16.73;;;14.10;22.90;;;;;;4955870;29;20478;-80
2024/03/22 08:04:20;;;;;;;17.47;16.27;;;14.10;22.70;;;;;;4935958;29;20261;-81
2024/03/22 08:06:46;;;;;;;17.03;15.63;;;14.20;22.40;;;;;;4954332;29;20195;-79
2024/03/22 08:09:11;;;;;;;17.77;16.47;;;14.30;22.40;;;;;;4959539;29;20599;-80
2024/03/22 08:11:37;;;;;;;17.33;15.90;;;14.30;22.40;;;;;;4955325;29;20215;-79
2024/03/22 08:14:03;;;;;;;15.43;14.50;;;14.30;22.20;;;;;;4944410;29;20263;-81
2024/03/22 08:16:30;;;;;;;16.67;15.40;;;14.30;22.00;;;;;;4957674;29;20214;-81
2024/03/22 08:18:55;;;;;;;17.23;15.93;;;14.30;22.50;;;;;;4947280;29;20436;-79
2024/03/22 08:21:22;;;;;;;16.57;15.40;;;14.40;22.90;;;;;;4954740;29;20513;-80
2024/03/22 08:23:48;;;;;;;17.03;15.77;;;14.40;23.30;;;;;;4956176;29;20443;-80
2024/03/22 08:26:13;;;;;;;17.13;16.03;;;14.40;23.50;;;;;;4967013;29;20445;-79
2024/03/22 08:28:39;;;;;;;16.20;15.00;;;14.50;22.90;;;;;;4951868;29;20215;-81
2024/03/22 08:31:05;;;;;;;15.83;14.77;;;14.60;23.80;;;;;;4944274;29;20286;-81
2024/03/22 08:33:31;;;;;;;16.33;14.97;;;14.60;21.80;;;;;;4943390;29;20683;-80
2024/03/22 08:35:56;;;;;;;16.43;15.20;;;14.70;21.70;;;;;;4945171;29;20435;-81
2024/03/22 08:38:23;;;;;;;17.63;16.40;;;14.80;21.70;;;;;;4959921;29;20253;-81
2024/03/22 08:40:56;;;;;;;14.77;13.77;;;14.90;21.20;;;;;;4949672;29;20262;-81
2024/03/22 08:43:29;;;;;;;14.70;13.60;;;15.00;20.60;;;;;;4938429;29;20521;-81
2024/03/22 08:45:55;;;;;;;13.57;12.77;;;15.10;19.80;;;;;;4938541;29;20430;-81
2024/03/22 08:48:21;;;;;;;13.00;12.30;;;15.20;18.50;;;;;;4950516;29;20485;-80
2024/03/22 08:50:46;;;;;;;12.53;11.83;;;15.30;18.50;;;;;;4958755;29;20557;-80
2024/03/22 08:53:12;;;;;;;13.57;12.57;;;15.40;18.60;;;;;;4939097;29;20187;-80
2024/03/22 08:55:37;;;;;;;12.67;11.93;;;15.40;17.80;;;;;;4947818;29;20211;-81
2024/03/22 08:58:04;;;;;;;12.00;10.90;;;15.40;16.90;;;;;;4954079;29;20187;-80
2024/03/22 09:00:30;;;;;;;11.80;10.90;;;15.50;16.80;;;;;;4936408;29;20220;-81
2024/03/22 09:02:55;;;;;;;10.80;10.10;;;15.60;16.20;;;;;;4928176;29;20442;-81
2024/03/22 09:05:22;;;;;;;11.20;10.37;;;15.60;15.90;;;;;;4944554;29;20215;-80
2024/03/22 09:07:48;;;;;;;10.20;9.60;;;15.60;15.80;;;;;;4940108;29;20254;-81
2024/03/22 09:10:14;;;;;;;11.93;11.13;;;15.80;15.10;;;;;;4956699;29;20565;-82
2024/03/22 09:12:40;;;;;;;11.97;11.17;;;15.80;15.00;;;;;;4949582;29;20247;-81
2024/03/22 09:15:07;;;;;;;10.90;10.23;;;15.90;14.60;;;;;;4931919;29;20215;-80
2024/03/22 09:17:32;;;;;;;11.20;10.50;;;16.00;14.90;;;;;;4928841;29;20461;-81
2024/03/22 09:19:58;;;;;;;11.83;11.13;;;16.00;14.90;;;;;;4941387;29;20451;-81
2024/03/22 09:22:24;;;;;;;12.27;11.47;;;16.00;15.20;;;;;;4930532;29;20525;-81
2024/03/22 09:24:49;;;;;;;11.13;10.27;;;16.00;14.70;;;;;;4940178;29;20192;-80
2024/03/22 09:27:15;;;;;;;11.17;10.47;;;15.90;14.60;;;;;;4944728;29;20219;-81
2024/03/22 09:29:43;;;;;;;12.03;11.23;;;15.90;13.90;;;;;;4938911;29;20235;-80
2024/03/22 09:32:09;;;;;;;11.77;10.63;;;16.00;14.40;;;;;;4955206;29;20924;-81
2024/03/22 09:34:34;;;;;;;11.10;10.50;;;16.10;14.10;;;;;;4940890;29;20503;-80
2024/03/22 09:37:00;;;;;;;9.63;9.03;;;16.20;13.40;;;;;;4959733;29;20247;-80
2024/03/22 09:39:27;;;;;;;10.70;9.93;;;16.30;11.90;;;;;;4956758;29;20181;-81
2024/03/22 09:41:57;;;;;;;9.53;8.90;;;16.40;10.70;;;;;;4960359;29;20183;-81
2024/03/22 09:44:23;;;;;;;9.03;8.40;;;16.70;10.90;;;;;;4945557;29;20419;-81
2024/03/22 09:46:51;;;;;;;9.50;8.90;;;16.80;10.90;;;;;;4968498;29;20462;-82
2024/03/22 09:49:17;;;;;;;9.20;8.60;;;17.00;10.70;;;;;;4945120;29;20447;-82
2024/03/22 09:51:43;;;;;;;9.67;9.13;;;17.10;9.70;;;;;;4959877;29;20463;-80
2024/03/22 09:54:10;;;;;;;9.00;8.40;;;17.20;9.60;;;;;;4933270;29;20202;-81
2024/03/22 09:56:39;;;;;;;10.23;9.40;;;17.30;9.60;;;;;;4938706;29;20445;-80
2024/03/22 09:59:08;;;;;;;10.50;9.80;;;17.40;9.90;;;;;;4962648;29;20435;-81
2024/03/22 10:01:34;;;;;;;9.73;9.23;;;17.50;9.70;;;;;;4940496;29;20468;-80
2024/03/22 10:04:00;;;;;;;9.80;9.17;;;17.50;9.90;;;;;;4962045;29;20444;-81
2024/03/22 10:06:26;;;;;;;9.57;8.90;;;17.60;9.20;;;;;;4958452;29;20648;-80
2024/03/22 10:08:51;;;;;;;11.20;10.50;;;17.60;9.10;;;;;;4952324;29;20444;-80
2024/03/22 10:11:17;;;;;;;9.90;9.40;;;17.70;9.10;;;;;;4971465;29;20223;-81
2024/03/22 10:13:44;;;;;;;9.93;9.33;;;17.70;9.20;;;;;;4949762;29;20191;-80
2024/03/22 10:16:10;;;;;;;10.13;9.53;;;17.60;9.20;;;;;;4949219;29;20427;-81
2024/03/22 10:18:36;;;;;;;11.10;10.20;;;17.50;9.40;;;;;;4933037;29;20512;-81
2024/03/22 10:21:03;;;;;;;9.80;9.30;;;17.30;9.70;;;;;;4955087;29;20221;-81
2024/03/22 10:23:31;;;;;;;9.57;9.07;;;17.30;9.80;;;;;;4941951;29;20427;-80
2024/03/22 10:25:58;;;;;;;10.37;9.87;;;17.30;9.40;;;;;;4927388;29;20439;-79
2024/03/22 10:28:27;;;;;;;9.97;9.17;;;17.30;9.40;;;;;;4936201;29;20450;-82
2024/03/22 10:30:53;;;;;;;10.23;9.63;;;17.30;9.50;;;;;;4949450;29;20486;-80
2024/03/22 10:33:19;;;;;;;10.40;9.80;;;17.40;9.90;;;;;;4952055;29;20420;-80
2024/03/22 10:35:46;;;;;;;10.40;9.80;;;17.40;9.80;;;;;;4954964;29;20190;-80
2024/03/22 10:38:18;;;;;;;10.30;9.77;;;17.50;9.90;;;;;;4943773;29;20790;-80
2024/03/22 10:40:46;;;;;;;9.60;9.10;;;17.50;10.10;;;;;;4955719;29;20447;-81
2024/03/22 10:43:15;;;;;;;9.70;9.20;;;17.50;9.20;;;;;;4942528;29;20451;-80
2024/03/22 10:45:41;;;;;;;10.73;10.10;;;17.60;9.90;;;;;;4938897;29;20439;-81
2024/03/22 10:48:11;;;;;;;10.00;9.30;;;17.60;9.30;;;;;;4958327;29;20511;-81
2024/03/22 10:50:42;;;;;;;9.97;9.30;;;17.60;8.70;;;;;;4947800;29;20853;-81
2024/03/22 10:53:16;;;;;;;10.00;9.30;;;17.70;9.30;;;;;;4937778;29;20438;-81
2024/03/22 10:55:47;;;;;;;10.37;9.77;;;17.80;8.10;;;;;;4939280;29;20446;-80
2024/03/22 10:58:22;;;;;;;9.53;8.93;;;17.80;8.10;;;;;;4929867;29;20435;-80
2024/03/22 11:01:34;;;;;;;10.00;9.20;;;17.90;8.40;;;;;;4959875;23;20556;-81
2024/03/22 11:05:03;;;;;;;;;;;;;;;;;;;;;
2024/03/22 11:08:10;;;;;;;10.53;9.93;;;18.00;8.30;;;;;;4868220;29;21066;-82
2024/03/22 11:11:54;;;;;;;10.53;9.83;;;18.00;8.70;;;;;;4901295;29;20964;-82
2024/03/22 11:15:15;;;;;;;;;;;;;;;;;;;;;
2024/03/22 11:18:24;;;;;;;9.53;8.93;;;18.10;8.90;;;;;;4915173;29;20428;-82
2024/03/22 11:21:08;;;;;;;10.17;9.60;;;18.20;9.30;;;;;;4916145;29;20448;-82
2024/03/22 11:23:40;;;;;;;10.67;10.07;;;18.20;9.20;;;;;;4932600;29;20419;-81
2024/03/22 11:26:07;;;;;;;10.27;9.67;;;18.20;8.80;;;;;;4916280;29;20428;-82
2024/03/22 11:28:33;;;;;;;8.53;8.03;;;18.20;9.00;;;;;;4927455;29;20413;-82
2024/03/22 11:31:00;;;;;;;9.77;8.93;;;18.20;8.60;;;;;;4914810;29;20468;-82
2024/03/22 11:33:27;;;;;;;9.70;8.90;;;18.20;8.90;;;;;;4912229;29;20483;-82
2024/03/22 11:35:59;;;;;;;9.90;9.13;;;18.20;9.00;;;;;;4917175;29;20428;-82
2024/03/22 11:38:30;;;;;;;10.83;10.23;;;18.20;8.30;;;;;;4941771;29;20423;-82
2024/03/22 11:41:01;;;;;;;9.80;9.20;;;18.30;8.90;;;;;;4930702;29;20519;-81
2024/03/22 11:43:29;;;;;;;9.73;9.13;;;18.30;9.20;;;;;;4896246;29;20519;-81
2024/03/22 11:45:58;;;;;;;9.77;9.17;;;18.30;9.30;;;;;;4933067;29;20819;-82
2024/03/22 11:48:24;;;;;;;9.80;9.30;;;18.30;9.40;;;;;;4909950;29;20943;-82
2024/03/22 11:50:50;;;;;;;21.50;19.73;;;18.20;9.10;;;;;;4917475;29;20472;-82
2024/03/22 11:53:19;;;;;;;9.93;9.10;;;18.20;9.40;;;;;;4932747;29;20443;-81
2024/03/22 11:55:44;;;;;;;9.00;8.50;;;18.20;9.60;;;;;;4926593;29;20424;-82
2024/03/22 11:58:15;;;;;;;9.20;8.60;;;18.20;9.10;;;;;;4914542;29;20437;-82
2024/03/22 12:00:42;;;;;;;9.43;8.83;;;18.20;9.30;;;;;;4917136;29;20987;-83
2024/03/22 12:03:09;;;;;;;8.90;8.50;;;18.20;9.40;;;;;;4898107;29;20443;-83
2024/03/22 12:05:34;;;;;;;9.37;8.57;;;18.20;9.20;;;;;;4933214;29;20433;-83
2024/03/22 12:08:03;;;;;;;10.03;9.33;;;18.20;9.00;;;;;;4926143;29;20451;-83
2024/03/22 12:10:28;;;;;;;9.43;8.93;;;18.30;9.20;;;;;;4937466;29;20324;-84
2024/03/22 12:12:54;;;;;;;9.50;8.90;;;18.20;9.00;;;;;;4932032;29;20440;-81
2024/03/22 12:15:20;;;;;;;8.70;8.13;;;18.30;9.10;;;;;;4937677;29;20197;-82
2024/03/22 12:17:54;;;;;;;9.03;8.20;;;18.30;9.50;;;;;;4932591;29;20837;-82
2024/03/22 12:20:22;;;;;;;9.43;8.83;;;18.30;8.40;;;;;;4953175;29;20540;-81
2024/03/22 12:23:12;;;;;;;9.00;8.50;;;18.40;7.90;;;;;;4939284;29;20481;-81
2024/03/22 12:25:41;;;;;;;9.70;8.90;;;18.40;8.00;;;;;;4949594;29;20466;-81
2024/03/22 12:28:07;;;;;;;8.93;8.43;;;18.40;7.10;;;;;;4933600;29;20437;-80
2024/03/22 12:30:35;;;;;;;8.27;7.77;;;18.40;7.60;;;;;;4942070;29;20474;-82
2024/03/22 12:33:01;;;;;;;6.90;6.60;;;18.40;7.60;;;;;;4928971;29;20549;-82
2024/03/22 12:35:32;;;;;;;7.30;6.90;;;18.40;4.90;;;;;;4943677;29;20412;-82
2024/03/22 12:38:03;;;;;;;7.00;6.70;;;18.50;4.70;;;;;;4924984;29;20431;-82
2024/03/22 12:40:29;;;;;;;6.67;6.10;;;18.50;5.10;;;;;;4943693;29;20549;-82
2024/03/22 12:42:56;;;;;;;6.83;6.50;;;18.60;5.20;;;;;;4917604;29;20941;-79
2024/03/22 12:45:27;;;;;;;6.87;6.57;;;18.60;5.50;;;;;;4944435;29;20438;-80
2024/03/22 12:47:58;;;;;;;6.83;6.53;;;18.60;5.50;;;;;;4935754;29;20455;-81
2024/03/22 12:50:24;;;;;;;7.33;6.70;;;18.70;5.80;;;;;;4917357;29;20507;-80
2024/03/22 12:52:50;;;;;;;7.30;6.90;;;18.80;5.50;;;;;;4936748;29;20455;-80
2024/03/22 12:55:16;;;;;;;7.07;6.57;;;18.80;5.30;;;;;;4934140;29;20433;-81
2024/03/22 12:58:01;;;;;;;7.43;7.03;;;18.80;4.90;;;;;;4920616;29;20197;-80
2024/03/22 13:10:52;;;;;;;7.00;6.63;;;18.60;5.30;;;;;;4938941;29;20482;-82
2024/03/22 13:13:22;;;;;;;7.37;6.97;;;18.60;5.20;;;;;;4927086;29;20447;-82
2024/03/22 13:15:48;;;;;;;6.80;6.40;;;18.70;5.50;;;;;;4905280;29;20857;-81
2024/03/22 13:18:14;;;;;;;6.90;6.60;;;18.70;5.60;;;;;;4923276;29;20452;-82
2024/03/22 13:20:39;;;;;;;6.57;6.37;;;18.70;5.90;;;;;;4906142;29;20207;-81
2024/03/22 13:23:13;;;;;;;7.60;7.10;;;18.70;5.80;;;;;;4920071;29;20184;-82
2024/03/22 13:25:45;;;;;;;7.50;7.00;;;18.70;5.30;;;;;;4899830;29;20216;-81
2024/03/22 13:28:20;;;;;;;7.20;6.80;;;18.70;5.90;;;;;;4917342;29;20420;-82
2024/03/22 13:30:46;;;;;;;6.57;6.17;;;18.70;5.90;;;;;;4912433;29;20473;-82
2024/03/22 13:33:14;;;;;;;6.63;6.23;;;18.70;5.90;;;;;;4911099;29;20801;-81
2024/03/22 13:35:45;;;;;;;6.10;5.70;;;18.70;6.00;;;;;;4911237;29;20435;-82
2024/03/22 13:38:16;;;;;;;5.93;5.63;;;18.70;6.40;;;;;;4921108;29;20452;-82
2024/03/22 13:40:44;;;;;;;8.13;7.73;;;18.70;6.40;;;;;;4896046;29;20943;-82
2024/03/22 13:43:12;;;;;;;7.57;7.07;;;18.80;6.20;;;;;;4913437;29;20434;-81
2024/03/22 13:45:44;;;;;;;7.83;7.33;;;18.80;6.90;;;;;;4919411;29;20483;-81
2024/03/22 13:48:12;;;;;;;7.33;6.90;;;18.90;6.80;;;;;;4910473;29;21000;-81
2024/03/22 13:50:38;;;;;;;7.00;6.60;;;18.90;6.70;;;;;;4910496;29;20559;-81
2024/03/22 13:53:05;;;;;;;7.97;7.17;;;18.90;6.50;;;;;;4898924;29;20239;-81
2024/03/22 13:55:37;;;;;;;7.17;6.30;;;18.90;6.90;;;;;;4909977;29;20189;-82
2024/03/22 13:58:06;;;;;;;7.47;6.93;;;18.90;7.30;;;;;;4920439;29;20416;-81
2024/03/22 14:00:33;;;;;;;8.57;7.77;;;18.80;7.90;;;;;;4910632;29;20467;-82
2024/03/22 14:03:02;;;;;;;7.70;7.30;;;18.80;7.40;;;;;;4915429;29;20436;-82
2024/03/22 14:05:28;;;;;;;7.67;7.27;;;18.80;7.50;;;;;;4897463;29;20445;-83
2024/03/22 14:07:54;;;;;;;7.70;7.10;;;18.80;7.30;;;;;;4916136;29;20955;-82
2024/03/22 14:10:20;;;;;;;7.10;6.63;;;18.80;8.40;;;;;;4913027;29;20472;-82
2024/03/22 14:12:55;;;;;;;7.43;6.93;;;18.80;7.90;;;;;;4914182;29;20271;-82
2024/03/22 14:15:37;;;;;;;7.20;6.70;;;18.70;7.80;;;;;;4922403;29;20424;-82
2024/03/22 14:18:03;;;;;;;8.40;7.90;;;18.70;7.80;;;;;;4909807;29;20935;-82
2024/03/22 14:20:29;;;;;;;8.67;7.97;;;18.70;7.80;;;;;;4922091;29;20516;-83
2024/03/22 14:22:58;;;;;;;8.20;7.70;;;18.70;7.90;;;;;;4916806;29;20424;-82
2024/03/22 14:25:23;;;;;;;9.40;8.60;;;18.60;9.10;;;;;;4903275;29;20424;-82
2024/03/22 14:27:49;;;;;;;9.13;8.63;;;18.60;9.00;;;;;;4919174;29;20484;-82
2024/03/22 14:30:15;;;;;;;9.00;8.43;;;18.50;9.10;;;;;;4902502;29;20701;-81
2024/03/22 14:32:40;;;;;;;8.30;7.70;;;18.50;8.80;;;;;;4921515;29;20177;-81
2024/03/22 14:35:07;;;;;;;8.07;7.47;;;18.50;9.20;;;;;;4915167;29;20424;-82
2024/03/22 14:37:37;;;;;;;6.43;5.97;;;18.40;7.50;;;;;;4923812;29;20184;-83
2024/03/22 14:40:14;;;;;;;7.33;6.63;;;18.40;6.60;;;;;;4919840;29;20440;-82
2024/03/22 14:42:40;;;;;;;7.47;6.87;;;18.30;6.60;;;;;;4925911;29;20419;-81
2024/03/22 14:45:21;;;;;;;10.53;6.67;;;18.30;6.40;;;;;;4920306;29;20424;-82